sensor_id;sensor_type;location;lat;lon;timestamp;pressure;altitude;pressure_sealevel;temperature;humidity
19736;BME280;32064;49.310;8.646;2023-11-19T00:01:32;100454.47;;;13.88;75.05
19736;BME280;32064;49.310;8.646;2023-11-19T00:03:58;100454.03;;;13.83;75.35
19736;BME280;32064;49.310;8.646;2023-11-19T00:06:23;100456.28;;;13.87;75.45
19736;BME280;32064;49.310;8.646;2023-11-19T00:08:49;100438.72;;;13.86;75.85
19736;BME280;32064;49.310;8.646;2023-11-19T00:11:15;100448.09;;;13.90;75.86
19736;BME280;32064;49.310;8.646;2023-11-19T00:13:41;100451.94;;;13.86;76.42
19736;BME280;32064;49.310;8.646;2023-11-19T00:16:07;100446.88;;;13.95;76.12
19736;BME280;32064;49.310;8.646;2023-11-19T00:18:32;100441.47;;;13.96;76.16
19736;BME280;32064;49.310;8.646;2023-11-19T00:20:58;100431.72;;;13.97;75.93
19736;BME280;32064;49.310;8.646;2023-11-19T00:23:23;100423.22;;;13.93;76.10
19736;BME280;32064;49.310;8.646;2023-11-19T00:25:49;100419.84;;;13.91;76.54
19736;BME280;32064;49.310;8.646;2023-11-19T00:28:14;100425.75;;;13.83;77.13
19736;BME280;32064;49.310;8.646;2023-11-19T00:30:39;100430.94;;;13.85;76.98
19736;BME280;32064;49.310;8.646;2023-11-19T00:33:06;100424.41;;;13.89;76.95
19736;BME280;32064;49.310;8.646;2023-11-19T00:35:31;100415.28;;;13.93;76.95
19736;BME280;32064;49.310;8.646;2023-11-19T00:37:58;100423.31;;;13.91;77.14
19736;BME280;32064;49.310;8.646;2023-11-19T00:40:23;100421.66;;;13.90;77.45
19736;BME280;32064;49.310;8.646;2023-11-19T00:42:49;100405.25;;;13.97;76.90
19736;BME280;32064;49.310;8.646;2023-11-19T00:45:14;100402.94;;;14.03;77.35
19736;BME280;32064;49.310;8.646;2023-11-19T00:47:40;100400.16;;;14.05;76.69
19736;BME280;32064;49.310;8.646;2023-11-19T00:50:06;100389.13;;;14.00;77.63
19736;BME280;32064;49.310;8.646;2023-11-19T00:52:35;100406.81;;;13.99;77.64
19736;BME280;32064;49.310;8.646;2023-11-19T00:55:01;100411.00;;;14.02;77.53
19736;BME280;32064;49.310;8.646;2023-11-19T00:57:26;100411.59;;;14.05;77.53
19736;BME280;32064;49.310;8.646;2023-11-19T00:59:52;100412.56;;;14.04;77.54
19736;BME280;32064;49.310;8.646;2023-11-19T01:02:17;100404.38;;;14.07;78.04
19736;BME280;32064;49.310;8.646;2023-11-19T01:04:43;100409.13;;;14.13;77.46
19736;BME280;32064;49.310;8.646;2023-11-19T01:07:09;100413.31;;;14.16;77.09
19736;BME280;32064;49.310;8.646;2023-11-19T01:09:38;100414.00;;;14.18;77.95
19736;BME280;32064;49.310;8.646;2023-11-19T01:12:03;100411.13;;;14.21;77.55
19736;BME280;32064;49.310;8.646;2023-11-19T01:14:29;100415.00;;;14.17;78.07
19736;BME280;32064;49.310;8.646;2023-11-19T01:16:55;100395.50;;;14.18;77.62
19736;BME280;32064;49.310;8.646;2023-11-19T01:19:24;100398.84;;;14.20;77.35
19736;BME280;32064;49.310;8.646;2023-11-19T01:21:50;100404.03;;;14.22;78.04
19736;BME280;32064;49.310;8.646;2023-11-19T01:24:16;100400.13;;;14.26;77.79
19736;BME280;32064;49.310;8.646;2023-11-19T01:26:43;100402.94;;;14.24;77.94
19736;BME280;32064;49.310;8.646;2023-11-19T01:29:13;100402.78;;;14.26;78.18
19736;BME280;32064;49.310;8.646;2023-11-19T01:31:43;100395.56;;;14.28;77.95
19736;BME280;32064;49.310;8.646;2023-11-19T01:34:10;100405.88;;;14.31;77.75
19736;BME280;32064;49.310;8.646;2023-11-19T01:36:36;100406.59;;;14.33;78.24
19736;BME280;32064;49.310;8.646;2023-11-19T01:39:02;100409.34;;;14.31;78.48
19736;BME280;32064;49.310;8.646;2023-11-19T01:41:29;100411.50;;;14.17;78.71
19736;BME280;32064;49.310;8.646;2023-11-19T01:43:55;100398.66;;;14.12;79.22
19736;BME280;32064;49.310;8.646;2023-11-19T01:46:20;100408.59;;;14.20;78.54
19736;BME280;32064;49.310;8.646;2023-11-19T01:48:46;100418.81;;;14.24;78.80
19736;BME280;32064;49.310;8.646;2023-11-19T01:51:15;100409.16;;;14.23;79.30
19736;BME280;32064;49.310;8.646;2023-11-19T01:53:43;100403.22;;;14.31;78.25
19736;BME280;32064;49.310;8.646;2023-11-19T01:56:09;100401.75;;;14.38;78.37
19736;BME280;32064;49.310;8.646;2023-11-19T01:58:38;100397.66;;;14.34;78.05
19736;BME280;32064;49.310;8.646;2023-11-19T02:01:05;100401.97;;;14.35;78.53
19736;BME280;32064;49.310;8.646;2023-11-19T02:03:32;100396.00;;;14.33;78.43
19736;BME280;32064;49.310;8.646;2023-11-19T02:05:59;100395.84;;;14.34;78.88
19736;BME280;32064;49.310;8.646;2023-11-19T02:08:24;100396.56;;;14.36;78.80
19736;BME280;32064;49.310;8.646;2023-11-19T02:10:51;100386.69;;;14.38;78.56
19736;BME280;32064;49.310;8.646;2023-11-19T02:13:17;100386.56;;;14.40;78.73
19736;BME280;32064;49.310;8.646;2023-11-19T02:15:43;100366.81;;;14.44;78.70
19736;BME280;32064;49.310;8.646;2023-11-19T02:18:25;100357.44;;;14.40;78.47
19736;BME280;32064;49.310;8.646;2023-11-19T02:20:54;100378.06;;;14.46;78.46
19736;BME280;32064;49.310;8.646;2023-11-19T02:23:20;100380.31;;;14.41;78.85
19736;BME280;32064;49.310;8.646;2023-11-19T02:26:05;100388.72;;;14.25;79.57
19736;BME280;32064;49.310;8.646;2023-11-19T02:28:35;100377.22;;;14.36;79.74
19736;BME280;32064;49.310;8.646;2023-11-19T02:31:02;100370.41;;;14.43;78.82
19736;BME280;32064;49.310;8.646;2023-11-19T02:33:30;100370.28;;;14.45;79.02
19736;BME280;32064;49.310;8.646;2023-11-19T02:35:55;100342.97;;;14.44;79.43
19736;BME280;32064;49.310;8.646;2023-11-19T02:38:21;100328.59;;;14.37;79.78
19736;BME280;32064;49.310;8.646;2023-11-19T02:40:47;100323.28;;;14.37;79.06
19736;BME280;32064;49.310;8.646;2023-11-19T02:43:13;100321.22;;;14.41;79.75
19736;BME280;32064;49.310;8.646;2023-11-19T02:45:38;100321.09;;;14.42;79.80
19736;BME280;32064;49.310;8.646;2023-11-19T02:48:04;100319.69;;;14.38;79.17
19736;BME280;32064;49.310;8.646;2023-11-19T02:50:31;100324.72;;;14.41;80.44
19736;BME280;32064;49.310;8.646;2023-11-19T02:52:57;100335.44;;;14.40;80.09
19736;BME280;32064;49.310;8.646;2023-11-19T02:55:23;100334.44;;;14.41;80.40
19736;BME280;32064;49.310;8.646;2023-11-19T02:57:49;100333.34;;;14.43;79.99
19736;BME280;32064;49.310;8.646;2023-11-19T03:00:16;100341.88;;;14.47;80.56
19736;BME280;32064;49.310;8.646;2023-11-19T03:02:42;100342.56;;;14.49;80.54
19736;BME280;32064;49.310;8.646;2023-11-19T03:05:15;100333.78;;;14.48;80.79
19736;BME280;32064;49.310;8.646;2023-11-19T03:07:42;100337.97;;;14.51;80.74
19736;BME280;32064;49.310;8.646;2023-11-19T03:10:11;100328.13;;;14.53;80.65
19736;BME280;32064;49.310;8.646;2023-11-19T03:12:43;100316.94;;;14.49;80.70
19736;BME280;32064;49.310;8.646;2023-11-19T03:15:09;100319.34;;;14.52;80.78
19736;BME280;32064;49.310;8.646;2023-11-19T03:17:44;100319.34;;;14.52;81.05
19736;BME280;32064;49.310;8.646;2023-11-19T03:20:11;100304.31;;;14.53;81.02
19736;BME280;32064;49.310;8.646;2023-11-19T03:22:42;100308.22;;;14.58;80.93
19736;BME280;32064;49.310;8.646;2023-11-19T03:25:08;100303.88;;;14.57;81.64
19736;BME280;32064;49.310;8.646;2023-11-19T03:27:37;100305.41;;;14.60;81.04
19736;BME280;32064;49.310;8.646;2023-11-19T03:30:09;100298.31;;;14.60;81.28
19736;BME280;32064;49.310;8.646;2023-11-19T03:32:35;100298.75;;;14.66;80.59
19736;BME280;32064;49.310;8.646;2023-11-19T03:35:01;100292.75;;;14.64;81.96
19736;BME280;32064;49.310;8.646;2023-11-19T03:37:27;100288.03;;;14.67;80.99
19736;BME280;32064;49.310;8.646;2023-11-19T03:39:59;100291.09;;;14.72;81.08
19736;BME280;32064;49.310;8.646;2023-11-19T03:42:26;100283.97;;;14.63;81.89
19736;BME280;32064;49.310;8.646;2023-11-19T03:44:52;100288.03;;;14.67;81.55
19736;BME280;32064;49.310;8.646;2023-11-19T03:47:18;100289.13;;;14.65;81.96
19736;BME280;32064;49.310;8.646;2023-11-19T03:49:48;100283.84;;;14.65;81.76
19736;BME280;32064;49.310;8.646;2023-11-19T03:52:13;100282.44;;;14.70;82.13
19736;BME280;32064;49.310;8.646;2023-11-19T03:54:39;100275.50;;;14.69;82.58
19736;BME280;32064;49.310;8.646;2023-11-19T03:57:04;100276.44;;;14.68;83.32
19736;BME280;32064;49.310;8.646;2023-11-19T03:59:30;100280.34;;;14.64;82.56
19736;BME280;32064;49.310;8.646;2023-11-19T04:01:55;100273.81;;;14.68;82.40
19736;BME280;32064;49.310;8.646;2023-11-19T04:04:22;100277.72;;;14.74;82.57
19736;BME280;32064;49.310;8.646;2023-11-19T04:06:47;100272.69;;;14.71;82.56
19736;BME280;32064;49.310;8.646;2023-11-19T04:09:13;100271.59;;;14.73;82.35
19736;BME280;32064;49.310;8.646;2023-11-19T04:11:38;100262.53;;;14.76;82.61
19736;BME280;32064;49.310;8.646;2023-11-19T04:14:05;100264.06;;;14.78;82.71
19736;BME280;32064;49.310;8.646;2023-11-19T04:16:30;100263.91;;;14.80;82.59
19736;BME280;32064;49.310;8.646;2023-11-19T04:18:56;100263.75;;;14.72;82.82
19736;BME280;32064;49.310;8.646;2023-11-19T04:21:21;100270.31;;;14.77;83.42
19736;BME280;32064;49.310;8.646;2023-11-19T04:23:48;100267.41;;;14.71;83.91
19736;BME280;32064;49.310;8.646;2023-11-19T04:26:14;100267.66;;;14.77;82.95
19736;BME280;32064;49.310;8.646;2023-11-19T04:28:40;100268.94;;;14.83;83.15
19736;BME280;32064;49.310;8.646;2023-11-19T04:31:06;100283.16;;;14.82;83.55
19736;BME280;32064;49.310;8.646;2023-11-19T04:33:31;100278.84;;;14.81;83.81
19736;BME280;32064;49.310;8.646;2023-11-19T04:35:56;100285.41;;;14.87;83.25
19736;BME280;32064;49.310;8.646;2023-11-19T04:38:22;100294.03;;;14.89;82.86
19736;BME280;32064;49.310;8.646;2023-11-19T04:40:47;100281.22;;;14.94;83.62
19736;BME280;32064;49.310;8.646;2023-11-19T04:43:12;100283.31;;;14.90;83.79
19736;BME280;32064;49.310;8.646;2023-11-19T04:45:38;100284.56;;;14.96;83.73
19736;BME280;32064;49.310;8.646;2023-11-19T04:48:05;100284.69;;;14.94;83.70
19736;BME280;32064;49.310;8.646;2023-11-19T04:50:30;100287.94;;;14.98;83.38
19736;BME280;32064;49.310;8.646;2023-11-19T04:52:55;100275.50;;;14.98;83.44
19736;BME280;32064;49.310;8.646;2023-11-19T04:55:21;100273.69;;;14.99;83.28
19736;BME280;32064;49.310;8.646;2023-11-19T04:57:47;100272.59;;;15.01;83.96
19736;BME280;32064;49.310;8.646;2023-11-19T05:00:13;100263.22;;;14.97;83.88
19736;BME280;32064;49.310;8.646;2023-11-19T05:02:38;100273.13;;;15.05;83.51
19736;BME280;32064;49.310;8.646;2023-11-19T05:05:04;100270.91;;;15.10;83.14
19736;BME280;32064;49.310;8.646;2023-11-19T05:07:30;100277.47;;;15.16;83.51
19736;BME280;32064;49.310;8.646;2023-11-19T05:09:56;100271.44;;;15.14;83.87
19736;BME280;32064;49.310;8.646;2023-11-19T05:12:21;100271.19;;;15.07;84.33
19736;BME280;32064;49.310;8.646;2023-11-19T05:14:48;100280.66;;;15.10;83.33
19736;BME280;32064;49.310;8.646;2023-11-19T05:17:18;100281.34;;;15.02;84.68
19736;BME280;32064;49.310;8.646;2023-11-19T05:19:44;100274.38;;;15.11;83.78
19736;BME280;32064;49.310;8.646;2023-11-19T05:22:10;100267.44;;;15.10;84.20
19736;BME280;32064;49.310;8.646;2023-11-19T05:24:35;100269.38;;;15.08;83.74
19736;BME280;32064;49.310;8.646;2023-11-19T05:27:01;100276.63;;;15.15;84.22
19736;BME280;32064;49.310;8.646;2023-11-19T05:29:27;100273.69;;;15.18;84.28
19736;BME280;32064;49.310;8.646;2023-11-19T05:31:52;100277.16;;;15.19;83.99
19736;BME280;32064;49.310;8.646;2023-11-19T05:34:17;100272.03;;;15.17;84.00
19736;BME280;32064;49.310;8.646;2023-11-19T05:36:43;100271.16;;;15.17;85.01
19736;BME280;32064;49.310;8.646;2023-11-19T05:39:08;100273.28;;;15.23;84.93
19736;BME280;32064;49.310;8.646;2023-11-19T05:41:34;100267.41;;;15.29;83.82
19736;BME280;32064;49.310;8.646;2023-11-19T05:43:59;100267.97;;;15.33;84.07
19736;BME280;32064;49.310;8.646;2023-11-19T05:46:24;100265.72;;;15.28;84.39
19736;BME280;32064;49.310;8.646;2023-11-19T05:48:52;100273.53;;;15.30;84.60
19736;BME280;32064;49.310;8.646;2023-11-19T05:51:18;100272.84;;;15.27;84.23
19736;BME280;32064;49.310;8.646;2023-11-19T05:53:43;100269.06;;;15.30;84.95
19736;BME280;32064;49.310;8.646;2023-11-19T05:56:10;100266.28;;;15.32;84.47
19736;BME280;32064;49.310;8.646;2023-11-19T05:58:36;100265.31;;;15.33;84.46
19736;BME280;32064;49.310;8.646;2023-11-19T06:01:02;100255.41;;;15.35;84.40
19736;BME280;32064;49.310;8.646;2023-11-19T06:03:28;100252.59;;;15.36;83.96
19736;BME280;32064;49.310;8.646;2023-11-19T06:05:54;100243.09;;;15.43;84.24
19736;BME280;32064;49.310;8.646;2023-11-19T06:08:19;100244.66;;;15.36;83.86
19736;BME280;32064;49.310;8.646;2023-11-19T06:10:46;100242.94;;;15.45;83.81
19736;BME280;32064;49.310;8.646;2023-11-19T06:13:14;100242.28;;;15.33;84.97
19736;BME280;32064;49.310;8.646;2023-11-19T06:15:43;100236.00;;;15.34;85.48
19736;BME280;32064;49.310;8.646;2023-11-19T06:18:08;100243.28;;;15.32;84.34
19736;BME280;32064;49.310;8.646;2023-11-19T06:20:35;100243.09;;;15.34;85.42
19736;BME280;32064;49.310;8.646;2023-11-19T06:23:00;100257.06;;;15.36;85.61
19736;BME280;32064;49.310;8.646;2023-11-19T06:25:26;100263.91;;;15.38;84.72
19736;BME280;32064;49.310;8.646;2023-11-19T06:27:52;100255.78;;;15.40;84.70
19736;BME280;32064;49.310;8.646;2023-11-19T06:30:18;100265.44;;;15.41;84.16
19736;BME280;32064;49.310;8.646;2023-11-19T06:32:44;100270.44;;;15.44;84.87
19736;BME280;32064;49.310;8.646;2023-11-19T06:35:09;100273.66;;;15.47;85.00
19736;BME280;32064;49.310;8.646;2023-11-19T06:37:35;100267.38;;;15.48;84.76
19736;BME280;32064;49.310;8.646;2023-11-19T06:40:01;100260.84;;;15.43;85.32
19736;BME280;32064;49.310;8.646;2023-11-19T06:42:27;100267.78;;;15.54;84.46
19736;BME280;32064;49.310;8.646;2023-11-19T06:44:52;100265.28;;;15.52;85.17
19736;BME280;32064;49.310;8.646;2023-11-19T06:47:18;100262.63;;;15.52;85.65
19736;BME280;32064;49.310;8.646;2023-11-19T06:49:44;100265.69;;;15.57;84.17
19736;BME280;32064;49.310;8.646;2023-11-19T06:52:09;100272.78;;;15.57;86.02
19736;BME280;32064;49.310;8.646;2023-11-19T06:54:35;100263.41;;;15.62;85.22
19736;BME280;32064;49.310;8.646;2023-11-19T06:57:00;100263.59;;;15.61;84.77
19736;BME280;32064;49.310;8.646;2023-11-19T06:59:26;100282.97;;;15.61;83.96
19736;BME280;32064;49.310;8.646;2023-11-19T07:01:55;100281.84;;;15.64;84.40
19736;BME280;32064;49.310;8.646;2023-11-19T07:04:21;100286.31;;;15.63;84.68
19736;BME280;32064;49.310;8.646;2023-11-19T07:06:46;100286.16;;;15.65;84.83
19736;BME280;32064;49.310;8.646;2023-11-19T07:09:13;100305.59;;;15.65;84.68
19736;BME280;32064;49.310;8.646;2023-11-19T07:11:40;100290.34;;;15.67;84.85
19736;BME280;32064;49.310;8.646;2023-11-19T07:14:06;100297.75;;;15.74;84.06
19736;BME280;32064;49.310;8.646;2023-11-19T07:16:35;100300.56;;;15.72;84.09
19736;BME280;32064;49.310;8.646;2023-11-19T07:19:02;100302.94;;;15.75;85.32
19736;BME280;32064;49.310;8.646;2023-11-19T07:21:28;100290.50;;;15.76;84.38
19736;BME280;32064;49.310;8.646;2023-11-19T07:23:54;100293.69;;;15.79;84.46
19736;BME280;32064;49.310;8.646;2023-11-19T07:26:19;100296.06;;;15.82;84.94
19736;BME280;32064;49.310;8.646;2023-11-19T07:28:45;100299.16;;;15.78;85.57
19736;BME280;32064;49.310;8.646;2023-11-19T07:31:10;100309.59;;;15.89;84.97
19736;BME280;32064;49.310;8.646;2023-11-19T07:33:36;100319.53;;;15.87;84.52
19736;BME280;32064;49.310;8.646;2023-11-19T07:36:01;100307.38;;;15.84;85.33
19736;BME280;32064;49.310;8.646;2023-11-19T07:38:27;100327.34;;;15.88;84.18
19736;BME280;32064;49.310;8.646;2023-11-19T07:40:52;100326.66;;;15.86;85.13
19736;BME280;32064;49.310;8.646;2023-11-19T07:43:17;100329.16;;;15.88;85.28
19736;BME280;32064;49.310;8.646;2023-11-19T07:45:43;100337.97;;;15.88;84.91
19736;BME280;32064;49.310;8.646;2023-11-19T07:48:11;100334.31;;;15.89;85.75
19736;BME280;32064;49.310;8.646;2023-11-19T07:50:39;100335.16;;;15.90;85.15
19736;BME280;32064;49.310;8.646;2023-11-19T07:53:06;100323.41;;;15.92;85.49
19736;BME280;32064;49.310;8.646;2023-11-19T07:55:33;100318.66;;;15.96;84.45
19736;BME280;32064;49.310;8.646;2023-11-19T07:57:58;100320.63;;;15.94;86.14
19736;BME280;32064;49.310;8.646;2023-11-19T08:00:23;100316.69;;;15.98;85.01
19736;BME280;32064;49.310;8.646;2023-11-19T08:02:49;100319.22;;;16.00;85.39
19736;BME280;32064;49.310;8.646;2023-11-19T08:05:14;100329.38;;;16.04;86.02
19736;BME280;32064;49.310;8.646;2023-11-19T08:07:39;100321.88;;;16.00;85.90
19736;BME280;32064;49.310;8.646;2023-11-19T08:10:05;100326.59;;;16.06;85.77
19736;BME280;32064;49.310;8.646;2023-11-19T08:12:35;100321.72;;;16.01;85.68
19736;BME280;32064;49.310;8.646;2023-11-19T08:15:02;100325.78;;;16.05;84.98
19736;BME280;32064;49.310;8.646;2023-11-19T08:17:28;100330.31;;;16.13;86.22
19736;BME280;32064;49.310;8.646;2023-11-19T08:19:53;100327.69;;;16.13;86.37
19736;BME280;32064;49.310;8.646;2023-11-19T08:22:18;100332.84;;;16.14;86.05
19736;BME280;32064;49.310;8.646;2023-11-19T08:24:44;100336.63;;;16.12;85.61
19736;BME280;32064;49.310;8.646;2023-11-19T08:27:09;100342.63;;;16.14;85.51
19736;BME280;32064;49.310;8.646;2023-11-19T08:29:35;100345.41;;;16.22;85.65
19736;BME280;32064;49.310;8.646;2023-11-19T08:32:03;100338.09;;;16.24;84.97
19736;BME280;32064;49.310;8.646;2023-11-19T08:34:29;100326.38;;;16.27;86.30
19736;BME280;32064;49.310;8.646;2023-11-19T08:36:54;100335.84;;;16.39;86.75
19736;BME280;32064;49.310;8.646;2023-11-19T08:39:21;100330.16;;;16.52;86.58
19736;BME280;32064;49.310;8.646;2023-11-19T08:41:47;100336.19;;;16.54;86.02
19736;BME280;32064;49.310;8.646;2023-11-19T08:44:13;100335.81;;;16.67;84.40
19736;BME280;32064;49.310;8.646;2023-11-19T08:46:38;100333.72;;;16.70;84.87
19736;BME280;32064;49.310;8.646;2023-11-19T08:49:05;100336.63;;;16.77;84.98
19736;BME280;32064;49.310;8.646;2023-11-19T08:51:30;100337.41;;;16.87;85.42
19736;BME280;32064;49.310;8.646;2023-11-19T08:53:56;100340.09;;;16.87;84.72
19736;BME280;32064;49.310;8.646;2023-11-19T08:56:22;100333.47;;;16.91;84.89
19736;BME280;32064;49.310;8.646;2023-11-19T08:58:48;100347.28;;;16.95;84.38
19736;BME280;32064;49.310;8.646;2023-11-19T09:01:13;100339.16;;;16.96;85.14
19736;BME280;32064;49.310;8.646;2023-11-19T09:03:39;100329.38;;;16.97;85.01
19736;BME280;32064;49.310;8.646;2023-11-19T09:06:04;100327.75;;;17.04;84.91
19736;BME280;32064;49.310;8.646;2023-11-19T09:08:29;100341.84;;;17.14;84.78
19736;BME280;32064;49.310;8.646;2023-11-19T09:10:55;100341.13;;;17.12;84.50
19736;BME280;32064;49.310;8.646;2023-11-19T09:13:20;100356.03;;;17.41;84.63
19736;BME280;32064;49.310;8.646;2023-11-19T09:15:46;100349.31;;;17.55;84.19
19736;BME280;32064;49.310;8.646;2023-11-19T09:18:11;100351.53;;;17.59;84.08
19736;BME280;32064;49.310;8.646;2023-11-19T09:20:36;100354.81;;;17.53;83.27
19736;BME280;32064;49.310;8.646;2023-11-19T09:23:05;100355.50;;;17.55;83.28
19736;BME280;32064;49.310;8.646;2023-11-19T09:25:31;100347.97;;;17.50;84.03
19736;BME280;32064;49.310;8.646;2023-11-19T09:27:56;100355.66;;;17.54;83.25
19736;BME280;32064;49.310;8.646;2023-11-19T09:30:22;100359.13;;;17.54;83.50
19736;BME280;32064;49.310;8.646;2023-11-19T09:32:48;100354.50;;;17.56;82.58
19736;BME280;32064;49.310;8.646;2023-11-19T09:35:13;100352.69;;;17.57;84.02
19736;BME280;32064;49.310;8.646;2023-11-19T09:37:40;100358.75;;;17.67;82.33
19736;BME280;32064;49.310;8.646;2023-11-19T09:40:06;100347.63;;;17.71;83.05
19736;BME280;32064;49.310;8.646;2023-11-19T09:42:43;100349.09;;;17.84;82.30
19736;BME280;32064;49.310;8.646;2023-11-19T09:45:14;100347.75;;;18.14;82.18
19736;BME280;32064;49.310;8.646;2023-11-19T09:47:45;100339.50;;;18.68;82.73
19736;BME280;32064;49.310;8.646;2023-11-19T09:50:16;100347.16;;;19.13;81.70
19736;BME280;32064;49.310;8.646;2023-11-19T09:52:43;100347.72;;;19.74;81.83
19736;BME280;32064;49.310;8.646;2023-11-19T09:55:08;100339.47;;;20.00;80.80
19736;BME280;32064;49.310;8.646;2023-11-19T09:57:35;100346.97;;;20.60;79.53
19736;BME280;32064;49.310;8.646;2023-11-19T10:00:03;100350.88;;;20.89;79.03
19736;BME280;32064;49.310;8.646;2023-11-19T10:02:31;100341.16;;;20.88;77.81
19736;BME280;32064;49.310;8.646;2023-11-19T10:04:59;100347.94;;;20.76;75.96
19736;BME280;32064;49.310;8.646;2023-11-19T10:07:25;100351.03;;;20.48;75.77
19736;BME280;32064;49.310;8.646;2023-11-19T10:09:52;100344.91;;;20.31;74.49
19736;BME280;32064;49.310;8.646;2023-11-19T10:12:18;100345.75;;;20.24;75.11
19736;BME280;32064;49.310;8.646;2023-11-19T10:14:44;100342.28;;;20.07;74.49
19736;BME280;32064;49.310;8.646;2023-11-19T10:17:10;100347.84;;;19.89;74.34
19736;BME280;32064;49.310;8.646;2023-11-19T10:19:35;100341.22;;;19.68;74.29
19736;BME280;32064;49.310;8.646;2023-11-19T10:22:04;100344.66;;;19.44;74.92
19736;BME280;32064;49.310;8.646;2023-11-19T10:24:33;100335.69;;;19.29;74.94
19736;BME280;32064;49.310;8.646;2023-11-19T10:27:00;100342.66;;;19.14;75.09
19736;BME280;32064;49.310;8.646;2023-11-19T10:29:29;100342.66;;;19.05;75.30
19736;BME280;32064;49.310;8.646;2023-11-19T10:31:56;100338.78;;;18.83;75.52
19736;BME280;32064;49.310;8.646;2023-11-19T10:34:26;100331.56;;;18.76;75.77
19736;BME280;32064;49.310;8.646;2023-11-19T10:36:52;100337.13;;;18.56;75.57
19736;BME280;32064;49.310;8.646;2023-11-19T10:39:18;100325.53;;;18.66;75.80
19736;BME280;32064;49.310;8.646;2023-11-19T10:41:46;100323.34;;;18.61;75.56
19736;BME280;32064;49.310;8.646;2023-11-19T10:44:11;100321.38;;;18.63;74.81
19736;BME280;32064;49.310;8.646;2023-11-19T10:46:38;100316.16;;;18.53;76.75
19736;BME280;32064;49.310;8.646;2023-11-19T10:49:07;100316.97;;;18.46;75.45
19736;BME280;32064;49.310;8.646;2023-11-19T10:51:33;100321.13;;;18.48;75.72
19736;BME280;32064;49.310;8.646;2023-11-19T10:54:03;100314.31;;;18.46;75.98
19736;BME280;32064;49.310;8.646;2023-11-19T10:56:34;100312.09;;;18.33;76.64
19736;BME280;32064;49.310;8.646;2023-11-19T10:59:01;100312.47;;;18.46;76.31
19736;BME280;32064;49.310;8.646;2023-11-19T11:01:39;100313.81;;;18.50;76.21
19736;BME280;32064;49.310;8.646;2023-11-19T11:04:16;100311.31;;;18.57;76.06
19736;BME280;32064;49.310;8.646;2023-11-19T11:06:45;100300.59;;;18.75;76.81
19736;BME280;32064;49.310;8.646;2023-11-19T11:09:13;100306.78;;;18.92;76.10
19736;BME280;32064;49.310;8.646;2023-11-19T11:11:40;100301.81;;;18.97;76.25
19736;BME280;32064;49.310;8.646;2023-11-19T11:14:12;100301.97;;;18.95;75.72
19736;BME280;32064;49.310;8.646;2023-11-19T11:16:37;100307.97;;;18.97;75.70
19736;BME280;32064;49.310;8.646;2023-11-19T11:19:06;100304.63;;;18.95;75.46
19736;BME280;32064;49.310;8.646;2023-11-19T11:21:32;100304.47;;;18.97;75.48
19736;BME280;32064;49.310;8.646;2023-11-19T11:32:38;100295.63;;;18.88;74.42
19736;BME280;32064;49.310;8.646;2023-11-19T11:37:55;100304.31;;;19.06;74.44
19736;BME280;32064;49.310;8.646;2023-11-19T11:40:25;100299.81;;;19.15;73.98
19736;BME280;32064;49.310;8.646;2023-11-19T11:42:54;100286.97;;;19.02;72.91
19736;BME280;32064;49.310;8.646;2023-11-19T11:45:43;100276.31;;;18.94;70.21
19736;BME280;32064;49.310;8.646;2023-11-19T11:48:15;100271.81;;;19.03;71.52
19736;BME280;32064;49.310;8.646;2023-11-19T11:50:56;100269.16;;;19.03;71.10
19736;BME280;32064;49.310;8.646;2023-11-19T11:53:23;100268.00;;;19.14;70.08
19736;BME280;32064;49.310;8.646;2023-11-19T11:58:30;100262.47;;;19.07;70.33
19736;BME280;32064;49.310;8.646;2023-11-19T12:01:01;100252.63;;;19.16;69.62
19736;BME280;32064;49.310;8.646;2023-11-19T12:03:31;100266.63;;;19.01;69.35
19736;BME280;32064;49.310;8.646;2023-11-19T12:05:57;100264.97;;;19.09;69.47
19736;BME280;32064;49.310;8.646;2023-11-19T12:08:27;100261.63;;;18.90;68.65
19736;BME280;32064;49.310;8.646;2023-11-19T12:10:57;100266.47;;;18.95;68.62
19736;BME280;32064;49.310;8.646;2023-11-19T12:13:42;100256.94;;;18.84;68.03
19736;BME280;32064;49.310;8.646;2023-11-19T12:16:11;100270.66;;;18.97;69.00
19736;BME280;32064;49.310;8.646;2023-11-19T12:18:38;100263.66;;;18.88;69.44
19736;BME280;32064;49.310;8.646;2023-11-19T12:21:05;100270.28;;;18.92;68.86
19736;BME280;32064;49.310;8.646;2023-11-19T12:23:31;100257.13;;;19.07;68.09
19736;BME280;32064;49.310;8.646;2023-11-19T12:26:00;100261.97;;;18.95;68.06
19736;BME280;32064;49.310;8.646;2023-11-19T12:28:25;100264.31;;;18.98;68.85
19736;BME280;32064;49.310;8.646;2023-11-19T12:30:53;100263.78;;;18.87;68.29
19736;BME280;32064;49.310;8.646;2023-11-19T12:33:19;100263.44;;;18.81;68.16
19736;BME280;32064;49.310;8.646;2023-11-19T12:35:46;100261.31;;;19.01;68.57
19736;BME280;32064;49.310;8.646;2023-11-19T12:38:25;100255.28;;;19.07;67.44
19736;BME280;32064;49.310;8.646;2023-11-19T12:41:07;100240.31;;;19.06;68.45
19736;BME280;32064;49.310;8.646;2023-11-19T12:43:33;100243.66;;;19.17;68.48
19736;BME280;32064;49.310;8.646;2023-11-19T12:46:16;100241.13;;;19.15;68.36
19736;BME280;32064;49.310;8.646;2023-11-19T12:48:42;100242.16;;;19.14;68.21
19736;BME280;32064;49.310;8.646;2023-11-19T12:51:07;100242.78;;;19.16;67.65
19736;BME280;32064;49.310;8.646;2023-11-19T12:53:50;100235.97;;;19.14;68.05
19736;BME280;32064;49.310;8.646;2023-11-19T12:56:18;100235.97;;;19.14;67.65
19736;BME280;32064;49.310;8.646;2023-11-19T12:58:43;100227.13;;;19.13;67.54
19736;BME280;32064;49.310;8.646;2023-11-19T13:01:09;100238.44;;;18.91;66.96
19736;BME280;32064;49.310;8.646;2023-11-19T13:03:38;100231.81;;;18.95;67.27